Time;durP1;ratioP1;P1;durP2;ratioP2;P2;SDS_P1;SDS_P2;PMS_P1;PMS_P2;Temp;Humidity;BMP_temperature;BMP_pressure;BME280_temperature;BME280_humidity;BME280_pressure;Samples;Min_cycle;Max_cycle;Signal;HPM_P1;HPM_P2
2021/06/27 00:02:16;;;;;;;7.72;6.38;;;18.90;70.70;;;;;;4997417;28;20039;-66
2021/06/27 00:04:41;;;;;;;6.93;6.03;;;18.80;70.80;;;;;;4998487;28;20045;-67
2021/06/27 00:07:07;;;;;;;6.63;5.93;;;18.80;70.90;;;;;;5000402;28;20077;-66
2021/06/27 00:09:33;;;;;;;7.22;6.50;;;18.70;71.00;;;;;;4995129;28;20026;-66
2021/06/27 00:12:00;;;;;;;9.02;5.93;;;18.70;71.20;;;;;;4997752;28;20735;-66
2021/06/27 00:14:27;;;;;;;6.72;5.93;;;18.70;71.30;;;;;;4998502;28;20036;-67
2021/06/27 00:16:53;;;;;;;8.32;6.70;;;18.70;71.40;;;;;;4997778;28;20053;-66
2021/06/27 00:19:21;;;;;;;8.52;6.65;;;18.60;71.40;;;;;;4996167;28;20026;-66
2021/06/27 00:21:47;;;;;;;6.72;5.82;;;18.60;71.60;;;;;;4998686;28;20038;-66
2021/06/27 00:24:13;;;;;;;6.68;6.07;;;18.60;71.60;;;;;;4995058;28;20045;-66
2021/06/27 00:26:39;;;;;;;7.30;6.60;;;18.50;71.80;;;;;;5029511;28;20038;-67
2021/06/27 00:29:04;;;;;;;7.32;6.32;;;18.50;71.90;;;;;;4997416;28;20052;-66
2021/06/27 00:31:30;;;;;;;9.10;6.50;;;18.50;72.10;;;;;;5031535;28;20498;-66
2021/06/27 00:33:56;;;;;;;8.07;6.32;;;18.40;72.00;;;;;;4997201;28;20513;-67
2021/06/27 00:36:22;;;;;;;6.68;6.05;;;18.40;72.10;;;;;;4994148;28;20041;-66
2021/06/27 00:38:48;;;;;;;6.50;5.80;;;18.40;72.10;;;;;;4997450;28;20085;-67
2021/06/27 00:41:14;;;;;;;8.95;6.35;;;18.30;72.30;;;;;;4993647;28;20045;-66
2021/06/27 00:43:40;;;;;;;7.18;6.07;;;18.30;72.50;;;;;;4995184;28;20041;-66
2021/06/27 00:46:05;;;;;;;6.10;5.47;;;18.20;72.60;;;;;;4996599;28;20044;-66
2021/06/27 00:48:31;;;;;;;6.22;5.60;;;18.10;72.60;;;;;;4996763;28;20200;-67
2021/06/27 00:50:58;;;;;;;6.97;5.60;;;18.10;72.70;;;;;;4993090;28;20904;-67
2021/06/27 00:53:24;;;;;;;6.43;5.65;;;18.10;72.80;;;;;;4999240;28;20041;-66
2021/06/27 00:55:54;;;;;;;5.32;4.90;;;18.10;72.70;;;;;;4998776;28;20034;-66
2021/06/27 00:58:38;;;;;;;5.95;5.35;;;18.10;72.80;;;;;;5000032;28;20045;-65
2021/06/27 01:01:08;;;;;;;5.68;5.18;;;18.10;73.30;;;;;;5000516;28;20677;-66
2021/06/27 01:03:33;;;;;;;6.13;5.63;;;18.10;72.60;;;;;;4995758;28;20052;-67
2021/06/27 01:05:59;;;;;;;7.63;5.53;;;18.10;72.50;;;;;;4995741;28;20891;-66
2021/06/27 01:08:25;;;;;;;6.72;5.28;;;18.10;72.50;;;;;;4997354;28;20036;-66
2021/06/27 01:10:51;;;;;;;8.73;5.18;;;18.00;72.30;;;;;;4996781;28;20034;-66
2021/06/27 01:13:18;;;;;;;5.68;5.18;;;18.00;72.30;;;;;;4992920;28;20312;-66
2021/06/27 01:15:44;;;;;;;5.97;5.47;;;18.00;72.40;;;;;;4995081;28;20026;-66
2021/06/27 01:18:10;;;;;;;8.50;5.50;;;18.00;72.30;;;;;;4997429;28;20029;-66
2021/06/27 01:20:38;;;;;;;6.72;6.07;;;18.00;72.40;;;;;;4990101;28;20386;-66
2021/06/27 01:23:08;;;;;;;8.57;5.97;;;17.90;72.30;;;;;;4998397;28;20038;-66
2021/06/27 01:25:37;;;;;;;7.85;6.00;;;17.90;72.30;;;;;;4995730;28;20040;-66
2021/06/27 01:28:04;;;;;;;7.68;6.60;;;17.90;72.50;;;;;;4997668;28;20069;-66
2021/06/27 01:30:31;;;;;;;9.48;6.78;;;17.80;72.30;;;;;;4997520;28;22491;-66
2021/06/27 01:32:59;;;;;;;7.25;6.05;;;17.80;72.40;;;;;;4997308;28;20044;-66
2021/06/27 01:35:26;;;;;;;7.38;6.30;;;17.80;72.60;;;;;;4998748;28;20056;-66
2021/06/27 01:37:54;;;;;;;7.45;5.90;;;17.70;72.50;;;;;;4996025;28;20044;-66
2021/06/27 01:40:27;;;;;;;6.50;5.75;;;17.70;72.80;;;;;;4994600;28;20670;-66
2021/06/27 01:43:11;;;;;;;7.18;6.53;;;17.70;73.10;;;;;;4995523;28;20520;-66
2021/06/27 01:45:39;;;;;;;7.28;6.57;;;17.70;73.30;;;;;;5029922;28;20038;-66
2021/06/27 01:48:08;;;;;;;10.75;8.32;;;17.60;73.00;;;;;;4998267;28;20498;-66
2021/06/27 01:50:35;;;;;;;8.82;7.93;;;17.60;73.40;;;;;;4990853;28;20131;-66
2021/06/27 01:53:01;;;;;;;11.30;7.85;;;17.60;73.50;;;;;;4994254;28;20560;-66
2021/06/27 01:55:28;;;;;;;9.93;7.70;;;17.50;73.50;;;;;;5029341;28;20041;-66
2021/06/27 01:57:55;;;;;;;11.30;7.72;;;17.50;73.60;;;;;;4996635;28;20497;-66
2021/06/27 02:00:23;;;;;;;10.93;7.95;;;17.50;73.80;;;;;;5000306;28;20030;-66
2021/06/27 02:02:49;;;;;;;11.25;8.88;;;17.40;73.80;;;;;;4997187;28;20068;-66
2021/06/27 02:05:15;;;;;;;10.18;8.50;;;17.40;73.90;;;;;;4994275;28;20084;-66
2021/06/27 02:07:41;;;;;;;9.40;8.38;;;17.40;73.90;;;;;;4995621;28;20038;-66
2021/06/27 02:10:20;;;;;;;9.82;7.57;;;17.40;74.10;;;;;;4995785;28;20034;-66
2021/06/27 02:12:46;;;;;;;7.57;6.72;;;17.40;74.60;;;;;;4996613;28;20509;-67
2021/06/27 02:15:13;;;;;;;8.77;7.03;;;17.30;74.10;;;;;;4995601;28;20658;-65
2021/06/27 02:17:56;;;;;;;8.07;6.80;;;17.30;74.20;;;;;;5026500;28;20057;-66
2021/06/27 02:20:26;;;;;;;8.10;6.78;;;17.30;75.10;;;;;;4996074;28;20814;-66
2021/06/27 02:22:51;;;;;;;7.68;6.78;;;17.20;74.60;;;;;;5008197;28;20057;-66
2021/06/27 02:25:17;;;;;;;7.85;7.03;;;17.20;74.60;;;;;;4996008;28;20034;-66
2021/06/27 02:27:43;;;;;;;8.95;7.50;;;17.10;74.50;;;;;;4994094;28;20034;-66
2021/06/27 02:30:10;;;;;;;8.75;7.45;;;17.10;74.40;;;;;;4994712;28;20038;-66
2021/06/27 02:32:36;;;;;;;7.68;6.97;;;17.10;74.70;;;;;;5006350;28;20050;-67
2021/06/27 02:35:04;;;;;;;7.88;7.07;;;17.10;74.60;;;;;;4995739;28;20102;-66
2021/06/27 02:37:29;;;;;;;8.40;6.90;;;17.10;74.80;;;;;;5008789;28;20501;-66
2021/06/27 02:39:55;;;;;;;9.60;8.05;;;17.10;74.70;;;;;;4994180;28;20050;-66
2021/06/27 02:42:21;;;;;;;8.50;7.65;;;17.10;74.70;;;;;;5010423;28;20038;-66
2021/06/27 02:44:46;;;;;;;10.13;8.02;;;17.10;74.90;;;;;;4999083;28;20035;-66
2021/06/27 02:47:16;;;;;;;10.55;8.30;;;17.10;75.10;;;;;;4989691;28;20061;-66
2021/06/27 02:49:42;;;;;;;10.43;7.72;;;17.20;75.20;;;;;;4994885;28;20047;-66
2021/06/27 02:52:08;;;;;;;9.05;7.68;;;17.20;75.10;;;;;;4996481;28;20034;-66
2021/06/27 02:54:33;;;;;;;9.00;7.35;;;17.20;75.30;;;;;;4992815;28;20038;-66
2021/06/27 02:56:59;;;;;;;9.77;7.55;;;17.10;75.10;;;;;;4996565;28;20026;-66
2021/06/27 02:59:24;;;;;;;8.68;7.35;;;17.20;75.20;;;;;;4997306;28;20069;-66
2021/06/27 03:01:50;;;;;;;9.02;7.47;;;17.10;75.10;;;;;;4997619;28;20038;-66
2021/06/27 03:04:16;;;;;;;8.05;7.07;;;17.20;75.30;;;;;;4999727;28;20045;-66
2021/06/27 03:06:41;;;;;;;10.20;7.50;;;17.20;75.10;;;;;;5030785;28;20072;-66
2021/06/27 03:09:07;;;;;;;8.32;7.43;;;17.20;75.20;;;;;;4997423;28;20159;-66
2021/06/27 03:11:33;;;;;;;8.38;7.03;;;17.20;75.30;;;;;;5001664;28;20037;-66
2021/06/27 03:13:58;;;;;;;7.60;6.82;;;17.20;75.30;;;;;;4999165;28;20034;-66
2021/06/27 03:16:24;;;;;;;7.65;6.72;;;17.20;75.40;;;;;;4998169;28;20587;-66
2021/06/27 03:18:49;;;;;;;9.50;6.65;;;17.20;75.10;;;;;;5002258;28;20027;-66
2021/06/27 03:21:15;;;;;;;7.60;5.75;;;17.30;75.20;;;;;;4995099;28;20060;-66
2021/06/27 03:23:41;;;;;;;7.63;6.60;;;17.30;75.10;;;;;;4998983;28;20040;-66
2021/06/27 03:26:06;;;;;;;8.63;7.28;;;17.30;75.10;;;;;;4998211;28;20034;-66
2021/06/27 03:28:37;;;;;;;8.75;7.72;;;17.30;75.20;;;;;;5000016;28;20061;-66
2021/06/27 03:31:04;;;;;;;8.40;7.55;;;17.40;75.30;;;;;;5002637;28;20126;-66
2021/06/27 03:33:29;;;;;;;11.35;7.95;;;17.40;75.30;;;;;;5001603;28;20038;-66
2021/06/27 03:35:55;;;;;;;8.50;7.60;;;17.40;75.30;;;;;;4999854;28;20066;-66
2021/06/27 03:40:50;;;;;;;9.23;7.53;;;17.40;75.80;;;;;;4998148;28;20026;-66
2021/06/27 03:43:16;;;;;;;7.88;7.07;;;17.40;75.80;;;;;;5000531;28;20093;-66
2021/06/27 03:45:42;;;;;;;7.10;6.22;;;17.50;76.50;;;;;;5000155;28;20061;-66
2021/06/27 03:48:08;;;;;;;5.97;4.95;;;17.50;75.60;;;;;;4998846;28;20057;-66
2021/06/27 03:50:34;;;;;;;5.07;4.68;;;17.50;75.80;;;;;;4995623;28;20412;-66
2021/06/27 03:52:59;;;;;;;4.95;4.55;;;17.50;75.70;;;;;;5000813;28;20132;-66
2021/06/27 03:55:25;;;;;;;5.35;4.85;;;17.60;75.70;;;;;;4996305;28;20577;-66
2021/06/27 03:57:51;;;;;;;5.13;4.72;;;17.60;76.40;;;;;;5001502;28;20477;-66
2021/06/27 04:00:18;;;;;;;4.90;4.50;;;17.60;75.40;;;;;;5001359;28;20568;-66
2021/06/27 04:02:44;;;;;;;5.00;4.50;;;17.60;75.40;;;;;;4999718;28;20153;-66
2021/06/27 04:05:11;;;;;;;4.18;3.88;;;17.60;75.40;;;;;;4998540;28;20026;-66
2021/06/27 04:07:37;;;;;;;4.30;4.00;;;17.60;75.40;;;;;;4999774;28;20034;-66
2021/06/27 04:10:04;;;;;;;4.63;4.25;;;17.60;75.50;;;;;;4999635;28;20116;-66
2021/06/27 04:12:29;;;;;;;4.97;4.30;;;17.60;75.70;;;;;;4998390;28;20029;-66
2021/06/27 04:14:55;;;;;;;4.78;4.38;;;17.60;76.60;;;;;;4996868;28;20140;-66
2021/06/27 04:17:22;;;;;;;4.93;4.53;;;17.50;75.90;;;;;;4995948;28;20030;-65
2021/06/27 04:19:49;;;;;;;5.53;5.03;;;17.50;76.00;;;;;;4995685;28;20179;-66
2021/06/27 04:22:15;;;;;;;6.85;5.30;;;17.60;76.00;;;;;;4998302;28;20038;-66
2021/06/27 04:24:41;;;;;;;6.88;4.65;;;17.60;76.00;;;;;;4998895;28;20053;-66
2021/06/27 04:27:07;;;;;;;5.20;4.80;;;17.60;76.00;;;;;;4997941;28;20034;-66
2021/06/27 04:29:33;;;;;;;5.35;4.85;;;17.60;77.00;;;;;;4999307;28;20100;-66
2021/06/27 04:31:59;;;;;;;5.63;5.10;;;17.60;76.20;;;;;;4998756;28;20029;-66
2021/06/27 04:34:25;;;;;;;5.40;4.90;;;17.70;76.20;;;;;;4997985;28;20200;-66
2021/06/27 04:36:50;;;;;;;5.82;5.22;;;17.70;76.20;;;;;;4996016;28;20038;-66
2021/06/27 04:39:17;;;;;;;6.13;5.50;;;17.70;76.30;;;;;;4998955;28;20061;-66
2021/06/27 04:41:44;;;;;;;5.55;5.10;;;17.80;76.20;;;;;;4997180;28;20026;-66
2021/06/27 04:44:10;;;;;;;6.40;5.75;;;17.80;76.20;;;;;;4997649;28;20540;-66
2021/06/27 04:46:37;;;;;;;6.18;5.63;;;17.90;76.10;;;;;;4998047;28;20042;-66
2021/06/27 04:49:03;;;;;;;6.63;5.53;;;17.90;76.20;;;;;;5000380;28;22057;-66
2021/06/27 04:51:29;;;;;;;7.35;5.68;;;17.90;76.30;;;;;;4999666;28;20034;-66
2021/06/27 04:53:54;;;;;;;7.40;6.18;;;18.00;76.50;;;;;;4998784;28;20037;-66
2021/06/27 04:56:20;;;;;;;7.00;6.30;;;18.00;76.50;;;;;;4997883;28;20041;-66
2021/06/27 04:58:46;;;;;;;7.50;6.80;;;18.00;76.30;;;;;;4996255;28;20064;-66
2021/06/27 05:01:11;;;;;;;6.88;6.18;;;18.10;76.30;;;;;;4993389;28;20053;-66
2021/06/27 05:03:37;;;;;;;7.25;6.55;;;18.10;76.10;;;;;;5002612;28;20732;-66
2021/06/27 05:06:03;;;;;;;7.57;6.82;;;18.20;75.90;;;;;;5025986;28;20061;-66
2021/06/27 05:08:29;;;;;;;7.43;6.72;;;18.20;75.80;;;;;;4996308;28;20053;-66
2021/06/27 05:10:54;;;;;;;7.53;6.82;;;18.20;75.80;;;;;;5028963;28;20069;-66
2021/06/27 05:13:20;;;;;;;9.27;6.90;;;18.30;75.80;;;;;;4995054;28;20117;-66
2021/06/27 05:15:45;;;;;;;9.85;7.22;;;18.30;75.70;;;;;;4996729;28;20037;-66
2021/06/27 05:18:11;;;;;;;8.38;6.47;;;18.30;75.80;;;;;;4995714;28;20034;-66
2021/06/27 05:20:37;;;;;;;10.38;6.88;;;18.40;75.90;;;;;;4997205;28;20027;-66
2021/06/27 05:23:03;;;;;;;7.80;6.93;;;18.40;75.80;;;;;;4996237;28;20061;-66
2021/06/27 05:25:28;;;;;;;7.50;6.75;;;18.50;75.80;;;;;;4998950;28;20046;-68
2021/06/27 05:27:54;;;;;;;6.82;6.13;;;18.50;75.80;;;;;;4994258;28;20058;-68
2021/06/27 05:30:20;;;;;;;8.38;6.43;;;18.50;75.50;;;;;;4998394;28;20038;-66
2021/06/27 05:32:46;;;;;;;6.75;6.15;;;18.50;75.60;;;;;;4996410;28;20041;-66
2021/06/27 05:35:11;;;;;;;7.88;6.78;;;18.50;75.40;;;;;;4998113;28;20037;-66
2021/06/27 05:37:37;;;;;;;8.52;6.13;;;18.50;75.30;;;;;;4995205;28;20033;-66
2021/06/27 05:40:04;;;;;;;6.75;6.05;;;18.60;75.40;;;;;;4999009;28;20038;-66
2021/06/27 05:42:30;;;;;;;7.03;6.32;;;18.60;75.40;;;;;;4995410;28;20088;-66
2021/06/27 05:44:56;;;;;;;8.43;6.50;;;18.70;75.60;;;;;;4996154;28;20631;-66
2021/06/27 05:47:21;;;;;;;7.05;6.35;;;18.70;75.40;;;;;;4996010;28;22374;-66
2021/06/27 05:49:47;;;;;;;7.35;6.65;;;18.70;75.30;;;;;;4998574;28;20050;-66
2021/06/27 05:52:13;;;;;;;6.72;6.13;;;18.80;75.20;;;;;;5030083;28;20045;-66
2021/06/27 05:54:38;;;;;;;8.57;6.43;;;18.80;75.30;;;;;;4995957;28;20038;-66
2021/06/27 05:57:04;;;;;;;7.10;6.40;;;18.80;75.90;;;;;;4995476;28;20037;-66
2021/06/27 05:59:30;;;;;;;6.68;6.05;;;18.80;74.90;;;;;;4992669;28;20068;-67
2021/06/27 06:01:55;;;;;;;6.50;5.90;;;18.90;74.70;;;;;;5017240;28;20867;-66
2021/06/27 06:04:21;;;;;;;8.70;5.97;;;18.90;74.90;;;;;;4992182;28;20513;-66
2021/06/27 06:06:47;;;;;;;8.25;6.32;;;18.90;74.80;;;;;;4994883;28;20465;-66
2021/06/27 06:09:12;;;;;;;6.70;6.10;;;19.00;74.90;;;;;;4996492;28;20062;-66
2021/06/27 06:11:38;;;;;;;6.85;6.13;;;19.00;74.90;;;;;;4993218;28;20081;-66
2021/06/27 06:14:05;;;;;;;6.90;6.30;;;19.00;75.10;;;;;;4994921;28;20034;-66
2021/06/27 06:16:30;;;;;;;7.00;6.30;;;19.10;75.40;;;;;;4991557;28;20026;-66
2021/06/27 06:18:56;;;;;;;6.82;6.22;;;19.10;75.30;;;;;;4995893;28;20041;-66
2021/06/27 06:21:21;;;;;;;6.40;5.80;;;19.10;75.20;;;;;;5000336;28;20026;-66
2021/06/27 06:23:47;;;;;;;6.95;6.25;;;19.20;75.30;;;;;;4997874;28;20065;-67
2021/06/27 06:26:13;;;;;;;7.35;6.65;;;19.20;75.40;;;;;;4998075;28;20034;-65
2021/06/27 06:28:39;;;;;;;6.88;6.18;;;19.30;76.30;;;;;;4995385;28;20030;-66
2021/06/27 06:31:05;;;;;;;7.20;6.50;;;19.40;75.30;;;;;;4998376;28;20444;-65
2021/06/27 06:33:30;;;;;;;7.50;5.97;;;19.40;75.10;;;;;;4994710;28;20117;-66
2021/06/27 06:35:56;;;;;;;7.45;6.72;;;19.50;76.30;;;;;;4997957;28;20041;-66
2021/06/27 06:38:22;;;;;;;9.43;7.22;;;19.60;75.50;;;;;;4998291;28;20092;-66
2021/06/27 06:40:48;;;;;;;7.65;6.70;;;19.70;76.50;;;;;;5001751;28;20092;-66
2021/06/27 06:43:14;;;;;;;7.68;6.25;;;19.70;76.10;;;;;;5001400;28;20056;-66
2021/06/27 06:45:39;;;;;;;7.60;6.90;;;19.80;75.20;;;;;;5001916;28;20053;-66
2021/06/27 06:48:06;;;;;;;7.70;6.55;;;19.80;74.90;;;;;;5003316;28;20062;-66
2021/06/27 06:50:31;;;;;;;8.07;7.25;;;19.90;74.70;;;;;;5032041;28;20042;-66
2021/06/27 06:52:57;;;;;;;7.85;7.05;;;19.90;74.70;;;;;;4998944;28;20041;-66
2021/06/27 06:55:26;;;;;;;7.65;6.93;;;19.90;74.60;;;;;;5002503;28;20528;-66
2021/06/27 06:57:52;;;;;;;9.45;7.28;;;20.00;74.50;;;;;;5001354;28;20030;-66
2021/06/27 07:00:18;;;;;;;7.72;7.03;;;20.00;74.20;;;;;;4999372;28;20083;-66
2021/06/27 07:02:43;;;;;;;7.38;6.68;;;20.10;74.10;;;;;;4999298;28;20518;-66
2021/06/27 07:05:10;;;;;;;7.45;6.72;;;20.10;74.10;;;;;;4995256;28;20050;-66
2021/06/27 07:07:36;;;;;;;7.38;6.60;;;20.20;74.00;;;;;;4998911;28;20046;-66
2021/06/27 07:10:06;;;;;;;7.47;6.75;;;20.20;74.00;;;;;;5033549;28;20076;-66
2021/06/27 07:12:32;;;;;;;7.35;6.65;;;20.30;73.90;;;;;;4999686;28;20034;-66
2021/06/27 07:14:58;;;;;;;7.82;6.82;;;20.40;73.50;;;;;;5000387;28;20033;-66
2021/06/27 07:17:24;;;;;;;9.32;6.88;;;20.40;74.30;;;;;;4999980;28;20038;-66
2021/06/27 07:19:49;;;;;;;8.35;7.43;;;20.50;73.50;;;;;;4999182;28;20136;-66
2021/06/27 07:22:15;;;;;;;7.28;6.68;;;20.50;73.50;;;;;;5001088;28;20131;-66
2021/06/27 07:24:40;;;;;;;7.25;6.50;;;20.60;74.00;;;;;;4998465;28;20989;-66
2021/06/27 07:27:07;;;;;;;7.35;6.68;;;20.60;74.10;;;;;;5030713;28;20038;-66
2021/06/27 07:29:33;;;;;;;7.25;6.60;;;20.70;74.20;;;;;;4999109;28;20039;-66
2021/06/27 07:31:58;;;;;;;8.45;7.05;;;20.80;74.30;;;;;;4998098;28;20379;-66
2021/06/27 07:34:25;;;;;;;6.85;6.15;;;20.90;74.00;;;;;;4996560;28;20117;-67
2021/06/27 07:36:51;;;;;;;7.47;6.72;;;21.00;73.40;;;;;;4998154;28;20080;-66
2021/06/27 07:39:16;;;;;;;7.43;6.43;;;21.10;73.50;;;;;;4998550;28;20034;-66
2021/06/27 07:41:42;;;;;;;5.78;5.30;;;21.30;73.30;;;;;;4998946;28;20425;-66
2021/06/27 07:44:08;;;;;;;6.47;5.82;;;21.30;73.00;;;;;;4997827;28;20029;-66
2021/06/27 07:46:33;;;;;;;7.32;6.05;;;21.50;72.60;;;;;;4998291;28;20144;-67
2021/06/27 07:48:59;;;;;;;7.55;6.43;;;21.60;73.30;;;;;;5000663;28;20681;-66
2021/06/27 07:51:25;;;;;;;6.28;5.53;;;21.70;72.10;;;;;;4999324;28;20437;-66
2021/06/27 07:53:51;;;;;;;5.63;5.05;;;21.80;72.00;;;;;;5001048;28;20042;-66
2021/06/27 07:56:16;;;;;;;6.03;5.43;;;21.90;71.60;;;;;;4999270;28;20035;-66
2021/06/27 07:58:42;;;;;;;5.75;5.25;;;22.00;71.10;;;;;;4998671;28;20092;-65
2021/06/27 08:01:07;;;;;;;5.50;5.10;;;22.20;70.70;;;;;;4996438;28;20026;-66
2021/06/27 08:03:33;;;;;;;6.28;4.75;;;22.20;70.40;;;;;;4997511;28;20033;-66
2021/06/27 08:05:59;;;;;;;6.30;5.43;;;22.30;70.20;;;;;;4995484;28;20049;-66
2021/06/27 08:08:24;;;;;;;5.10;4.70;;;22.40;69.80;;;;;;4997022;28;20058;-66
2021/06/27 08:10:50;;;;;;;5.15;4.65;;;22.60;69.50;;;;;;4997323;28;20121;-66
2021/06/27 08:13:16;;;;;;;5.30;4.75;;;22.70;68.90;;;;;;4997814;28;20041;-66
2021/06/27 08:15:42;;;;;;;5.28;4.80;;;22.70;69.20;;;;;;4995434;28;20039;-66
2021/06/27 08:18:07;;;;;;;4.60;4.20;;;22.90;69.10;;;;;;4995954;28;20033;-66
2021/06/27 08:20:33;;;;;;;4.53;4.20;;;23.00;68.60;;;;;;4999205;28;20045;-66
2021/06/27 08:22:59;;;;;;;4.20;3.90;;;23.10;68.10;;;;;;5000469;28;20030;-66
2021/06/27 08:25:24;;;;;;;4.50;4.05;;;23.20;68.00;;;;;;5000932;28;20050;-66
2021/06/27 08:27:51;;;;;;;3.90;3.60;;;23.40;67.90;;;;;;5033227;28;20553;-66
2021/06/27 08:30:18;;;;;;;3.53;3.22;;;23.50;67.60;;;;;;5001214;28;20073;-66
2021/06/27 08:32:45;;;;;;;3.70;3.40;;;23.60;66.90;;;;;;5000227;28;20042;-66
2021/06/27 08:35:13;;;;;;;3.60;3.30;;;23.70;66.20;;;;;;5001062;28;20036;-66
2021/06/27 08:37:39;;;;;;;3.47;3.20;;;23.90;66.00;;;;;;5001574;28;20035;-67
2021/06/27 08:40:06;;;;;;;3.38;3.13;;;24.00;65.90;;;;;;4999531;28;20044;-66
2021/06/27 08:42:32;;;;;;;3.35;3.05;;;24.10;65.20;;;;;;5000413;28;20022;-66
2021/06/27 08:44:58;;;;;;;3.20;2.85;;;24.20;64.50;;;;;;5001085;28;20556;-66
2021/06/27 08:47:24;;;;;;;2.97;2.75;;;24.30;64.20;;;;;;5000709;28;20117;-66
2021/06/27 08:49:51;;;;;;;3.30;3.05;;;24.40;63.90;;;;;;5000730;28;20121;-66
2021/06/27 08:52:21;;;;;;;2.83;2.63;;;24.50;63.30;;;;;;5000743;28;20436;-66
2021/06/27 08:54:48;;;;;;;3.80;2.72;;;24.60;62.70;;;;;;5000797;28;20549;-66
2021/06/27 08:57:15;;;;;;;2.67;2.47;;;24.70;62.20;;;;;;5000544;28;20038;-66
2021/06/27 08:59:41;;;;;;;4.95;3.95;;;24.80;62.00;;;;;;4999485;28;20045;-67
2021/06/27 09:02:09;;;;;;;3.58;3.28;;;24.80;61.90;;;;;;4999336;28;20042;-66
2021/06/27 09:04:41;;;;;;;5.82;5.18;;;25.00;61.80;;;;;;5029019;28;21355;-67
2021/06/27 09:07:27;;;;;;;5.07;4.68;;;25.00;60.80;;;;;;5000722;28;20184;-66
2021/06/27 09:10:00;;;;;;;8.65;7.75;;;25.10;59.70;;;;;;5000299;28;20472;-67
2021/06/27 09:12:25;;;;;;;6.65;6.10;;;25.30;60.50;;;;;;5000778;28;20106;-67
2021/06/27 09:14:57;;;;;;;3.50;3.20;;;25.40;60.20;;;;;;4999608;28;20038;-66
2021/06/27 09:17:24;;;;;;;6.72;3.85;;;25.50;59.60;;;;;;5000315;28;20083;-67
2021/06/27 09:19:55;;;;;;;3.58;3.30;;;25.60;59.40;;;;;;4996490;28;20081;-66
2021/06/27 09:22:32;;;;;;;2.72;2.53;;;25.80;58.70;;;;;;4992886;28;20386;-67
2021/06/27 09:25:16;;;;;;;2.28;2.08;;;25.90;58.70;;;;;;4990748;28;20038;-67
2021/06/27 09:27:42;;;;;;;2.15;2.05;;;26.00;58.10;;;;;;5027027;28;20045;-67
2021/06/27 09:30:20;;;;;;;2.25;2.05;;;26.20;58.20;;;;;;4997253;28;20064;-67
2021/06/27 09:32:53;;;;;;;2.13;1.92;;;26.30;57.00;;;;;;5028719;28;20045;-66
2021/06/27 09:35:50;;;;;;;3.42;2.00;;;26.50;57.10;;;;;;4997546;28;20122;-67
2021/06/27 09:38:44;;;;;;;1.95;1.85;;;26.60;56.10;;;;;;4997421;28;20424;-67
2021/06/27 09:41:14;;;;;;;21.83;16.30;;;26.70;56.40;;;;;;4997913;28;20037;-67
2021/06/27 09:43:40;;;;;;;28.13;23.10;;;26.80;56.00;;;;;;4997825;28;20069;-67
2021/06/27 09:46:12;;;;;;;17.15;14.30;;;26.90;56.00;;;;;;4994618;28;20264;-67
2021/06/27 09:48:53;;;;;;;27.77;24.85;;;27.00;55.70;;;;;;4996254;28;20545;-67
2021/06/27 09:51:19;;;;;;;7.90;7.18;;;27.10;54.90;;;;;;4995097;28;20544;-67
2021/06/27 09:53:46;;;;;;;3.13;2.80;;;27.20;55.10;;;;;;4993150;28;20038;-66
2021/06/27 09:56:13;;;;;;;2.10;2.00;;;27.30;54.60;;;;;;4994500;28;20499;-67
2021/06/27 09:58:39;;;;;;;4.55;4.15;;;27.40;54.40;;;;;;4994585;28;20541;-66
2021/06/27 10:01:21;;;;;;;8.07;7.00;;;27.40;54.30;;;;;;4993626;28;20034;-67
2021/06/27 10:03:56;;;;;;;12.55;11.38;;;27.50;53.60;;;;;;4990944;28;20035;-67
2021/06/27 10:06:33;;;;;;;5.95;5.45;;;27.60;54.50;;;;;;4994038;28;20513;-67
2021/06/27 10:09:21;;;;;;;11.45;9.05;;;27.70;53.00;;;;;;4995494;28;20048;-67
2021/06/27 10:12:16;;;;;;;3.10;2.80;;;27.90;53.00;;;;;;5014363;28;20506;-67
2021/06/27 10:14:48;;;;;;;;;;;28.00;52.60;;;;;;5000031;28;20682;-67
2021/06/27 10:17:14;;;;;;;8.02;7.03;;;28.10;54.60;;;;;;5001852;28;19914;-67
2021/06/27 10:19:40;;;;;;;4.43;4.03;;;28.20;53.40;;;;;;5001478;28;20040;-67
2021/06/27 10:22:07;;;;;;;2.28;1.92;;;28.20;52.20;;;;;;4999318;28;20039;-67
2021/06/27 10:24:33;;;;;;;2.10;1.77;;;28.30;51.80;;;;;;5030382;28;20040;-67
2021/06/27 10:26:59;;;;;;;1.50;1.40;;;28.40;51.50;;;;;;5029255;28;20041;-67
2021/06/27 10:29:25;;;;;;;1.42;1.33;;;28.50;51.50;;;;;;5000368;28;20055;-67
2021/06/27 10:31:54;;;;;;;1.38;1.27;;;28.50;51.40;;;;;;5033746;28;20088;-67
2021/06/27 10:34:21;;;;;;;1.60;1.50;;;28.60;50.90;;;;;;5001411;28;20049;-67
2021/06/27 10:36:52;;;;;;;1.17;1.17;;;28.60;50.40;;;;;;5000410;28;20045;-67
2021/06/27 10:39:20;;;;;;;1.10;1.10;;;28.70;49.70;;;;;;5000916;28;20552;-67
2021/06/27 10:42:03;;;;;;;1.38;1.27;;;28.70;50.00;;;;;;4998003;28;20513;-67
2021/06/27 10:44:37;;;;;;;1.50;1.40;;;28.80;49.10;;;;;;4998621;28;20042;-67
2021/06/27 10:47:04;;;;;;;1.10;1.10;;;28.80;49.10;;;;;;4997783;28;20114;-67
2021/06/27 10:49:30;;;;;;;1.00;1.00;;;28.90;49.40;;;;;;4999817;28;20038;-67
2021/06/27 10:52:06;;;;;;;1.35;1.00;;;29.00;48.60;;;;;;5027814;28;20467;-66
2021/06/27 10:54:36;;;;;;;0.80;0.80;;;29.00;48.00;;;;;;4997855;28;20409;-67
2021/06/27 10:57:06;;;;;;;1.05;0.90;;;29.10;48.70;;;;;;4999610;28;20401;-67
2021/06/27 10:59:53;;;;;;;1.35;0.85;;;29.10;47.70;;;;;;5030794;28;20070;-67
2021/06/27 11:02:28;;;;;;;1.73;1.10;;;29.10;46.90;;;;;;4995607;28;20030;-67
2021/06/27 11:04:54;;;;;;;;;;;29.20;46.90;;;;;;5001521;28;20038;-66
2021/06/27 11:07:38;;;;;;;0.75;0.75;;;29.20;49.30;;;;;;4999543;28;19925;-67
2021/06/27 11:10:22;;;;;;;0.63;0.63;;;29.30;46.80;;;;;;5033572;28;20033;-67
2021/06/27 11:13:06;;;;;;;0.70;0.70;;;29.30;46.60;;;;;;4996112;28;20022;-67
2021/06/27 11:15:43;;;;;;;0.70;0.70;;;29.30;46.30;;;;;;5030461;28;20038;-67
2021/06/27 11:18:11;;;;;;;0.70;0.70;;;29.30;46.90;;;;;;5031650;28;20120;-67
2021/06/27 11:20:52;;;;;;;0.63;0.63;;;29.30;46.00;;;;;;4999156;28;20049;-67
2021/06/27 11:23:18;;;;;;;0.68;0.68;;;29.30;44.90;;;;;;5000515;28;20039;-67
2021/06/27 11:25:48;;;;;;;0.88;0.88;;;29.30;45.90;;;;;;5000651;28;20117;-67
2021/06/27 11:28:17;;;;;;;0.73;0.73;;;29.30;46.20;;;;;;4999254;28;20026;-68
2021/06/27 11:30:47;;;;;;;0.98;0.90;;;29.30;46.00;;;;;;5032981;28;20042;-67
2021/06/27 11:33:21;;;;;;;1.20;0.98;;;29.30;44.70;;;;;;4999456;28;20062;-67
2021/06/27 11:35:52;;;;;;;1.55;0.98;;;29.30;45.10;;;;;;5000265;28;20058;-67
2021/06/27 11:38:36;;;;;;;1.13;0.85;;;29.30;44.70;;;;;;4999707;28;20030;-67
2021/06/27 11:41:12;;;;;;;0.80;0.80;;;29.30;44.90;;;;;;5000194;28;20026;-67
2021/06/27 11:44:04;;;;;;;1.05;0.80;;;29.30;45.70;;;;;;4999533;28;20040;-67
2021/06/27 11:46:45;;;;;;;2.78;0.65;;;29.30;45.50;;;;;;5029906;28;20038;-67
2021/06/27 11:49:14;;;;;;;1.55;0.80;;;29.30;45.00;;;;;;4998622;28;20682;-67
2021/06/27 11:51:46;;;;;;;0.80;0.80;;;29.30;46.20;;;;;;4998180;28;20031;-67
2021/06/27 11:54:18;;;;;;;3.60;0.85;;;29.30;45.70;;;;;;4999689;28;20030;-67
2021/06/27 11:56:53;;;;;;;0.70;0.70;;;29.20;45.50;;;;;;4998139;28;20802;-67
2021/06/27 11:59:22;;;;;;;1.20;0.90;;;29.20;44.70;;;;;;5033207;28;20042;-67
2021/06/27 12:02:18;;;;;;;2.35;0.85;;;29.20;45.50;;;;;;4999306;28;20490;-67
2021/06/27 12:04:53;;;;;;;0.90;0.90;;;29.30;44.90;;;;;;5000296;28;20544;-67
2021/06/27 12:07:38;;;;;;;0.90;0.90;;;29.40;45.20;;;;;;4999280;28;20054;-67
2021/06/27 12:10:18;;;;;;;0.90;0.80;;;29.40;44.90;;;;;;4998687;28;20054;-67
2021/06/27 12:12:53;;;;;;;1.52;0.80;;;29.50;44.70;;;;;;4992364;28;20194;-67
2021/06/27 12:15:18;;;;;;;0.90;0.90;;;29.60;44.00;;;;;;5033134;28;20468;-67
2021/06/27 12:18:13;;;;;;;0.80;0.80;;;29.60;44.80;;;;;;5029515;28;20034;-67
2021/06/27 12:20:46;;;;;;;1.80;1.00;;;29.60;44.70;;;;;;4994718;28;20033;-67
2021/06/27 12:23:25;;;;;;;0.85;0.85;;;29.60;44.50;;;;;;4995609;28;20065;-67
2021/06/27 12:25:53;;;;;;;1.42;0.82;;;29.70;43.50;;;;;;5009733;28;20037;-67
2021/06/27 12:28:32;;;;;;;0.73;0.73;;;29.70;43.90;;;;;;4995805;28;20030;-67
2021/06/27 12:31:29;;;;;;;0.80;0.80;;;29.70;44.20;;;;;;4996194;28;20026;-67
2021/06/27 12:34:00;;;;;;;0.88;0.88;;;29.80;44.60;;;;;;4993102;28;20609;-67
2021/06/27 12:36:28;;;;;;;1.00;1.00;;;29.80;44.10;;;;;;4994204;28;20409;-67
2021/06/27 12:38:56;;;;;;;0.82;0.75;;;29.90;44.90;;;;;;4998428;28;20030;-67
2021/06/27 12:41:33;;;;;;;0.90;0.90;;;29.90;44.80;;;;;;4994781;28;20026;-67
2021/06/27 12:44:04;;;;;;;1.05;0.95;;;30.00;44.00;;;;;;4995016;28;20049;-67
2021/06/27 12:46:49;;;;;;;0.95;0.95;;;30.00;43.00;;;;;;4995215;28;20042;-67
2021/06/27 12:49:31;;;;;;;1.02;1.02;;;30.00;43.20;;;;;;4998653;28;20034;-67
2021/06/27 12:51:57;;;;;;;1.00;1.00;;;30.00;44.00;;;;;;4995242;28;20064;-67
2021/06/27 12:54:24;;;;;;;1.10;0.90;;;30.00;43.50;;;;;;5026910;28;20121;-67
2021/06/27 12:56:55;;;;;;;0.80;0.80;;;30.00;44.10;;;;;;4998454;28;20030;-67